Fri Langesund — ZDKQ8 — position and weather

sailwx.info

Track history (hours):
 
Tides and Currents Weather Stations Pressure Air Temp Water Temp Dewpoint Dewpoint Depression Visibility Wind Speed Wind Dir Waves Ship Positions

Fri Langesund

Last reported at 2015-Jan-30 02:33 UTC. Time now 2015-Jan-30 02:41 UTC.
Position N 53°54' E 011°28'.

Length 90 m; draft 5.7 m.

Type: Cargo ship. MMSI: 236111779.

Date/timePositionNaut miles runAvg speedWind from/ knotsBaromVisibWave heightAir tempDewpointWater temp
2015-Jan-30 02:33N 53°54' E 011°28'0 0.0
2015-Jan-30 01:33N 53°54' E 011°28'0 0.0
2015-Jan-30 00:33N 53°54' E 011°28'0 0.0
2015-Jan-29 23:33N 53°54' E 011°28'0 0.0
2015-Jan-29 22:33N 53°54' E 011°28'0 0.0
2015-Jan-29 21:27N 53°54' E 011°28'0 0.0
2015-Jan-29 20:33N 53°54' E 011°28'0 0.0
2015-Jan-29 19:33N 53°54' E 011°28'0 0.0
2015-Jan-29 18:33N 53°54' E 011°28'0 0.0
2015-Jan-29 17:33N 53°54' E 011°28'0 0.0
2015-Jan-29 16:33N 53°54' E 011°28'0 0.0
2015-Jan-29 15:33N 53°54' E 011°28'0 0.0
2015-Jan-29 14:33N 53°54' E 011°28'0 0.0
2015-Jan-29 13:30N 53°54' E 011°28'0 0.0
2015-Jan-29 12:30N 53°54' E 011°28'0 0.0
2015-Jan-29 11:33N 53°54' E 011°28'0 0.0
2015-Jan-29 10:33N 53°54' E 011°28'0 0.0
2015-Jan-29 09:33N 53°54' E 011°28'0 0.0
2015-Jan-29 08:33N 53°54' E 011°28'0 0.0
2015-Jan-29 07:33N 53°54' E 011°28'0 0.0
2015-Jan-29 06:33N 53°54' E 011°28'0 0.0
2015-Jan-29 05:33N 53°54' E 011°28'0 0.0
2015-Jan-29 04:33N 53°54' E 011°28'0 0.0
2015-Jan-29 03:33N 53°54' E 011°28'0 0.0
2015-Jan-29 02:30N 53°54' E 011°28'0 0.0
2015-Jan-29 01:33N 53°54' E 011°28'0 0.0
2015-Jan-29 00:30N 53°54' E 011°28'0 0.0
2015-Jan-28 23:33N 53°54' E 011°28'0 0.0
2015-Jan-28 22:33N 53°54' E 011°28'0 0.0
2015-Jan-28 21:33N 53°54' E 011°28'0 0.0
2015-Jan-28 20:33N 53°54' E 011°28'0 0.0
2015-Jan-28 19:33N 53°54' E 011°28'0 0.0
2015-Jan-28 18:33N 53°54' E 011°28'0 0.0
2015-Jan-28 17:33N 53°54' E 011°28'0 0.0
2015-Jan-28 16:33N 53°54' E 011°28'0 0.0
2015-Jan-28 15:30N 53°54' E 011°28'0 0.0
2015-Jan-28 14:33N 53°54' E 011°28'0 0.0
2015-Jan-28 13:30N 53°54' E 011°28'0 0.0
2015-Jan-28 12:33N 53°54' E 011°28'0 0.0
2015-Jan-28 11:33N 53°54' E 011°28'0 0.0
2015-Jan-28 10:33N 53°54' E 011°28'0 0.0
2015-Jan-28 09:30N 53°54' E 011°28'3 3.0
2015-Jan-28 08:33N 53°56' E 011°25'6 6.2
2015-Jan-28 07:33N 54°02' E 011°25'18 9.0
2015-Jan-28 05:33N 54°20' E 011°23'9 9.5
2015-Jan-28 04:33N 54°30' E 011°21'10 9.6
2015-Jan-28 03:33N 54°36' E 011°08'187 9.2
2015-Jan-27 07:14N 57°42' E 010°45'6 8.9
2015-Jan-27 06:33N 57°47' E 010°39'2211.0
2015-Jan-27 04:32N 57°44' E 009°57'1110.5
2015-Jan-27 03:32N 57°44' E 009°37'1110.9
2015-Jan-27 02:33N 57°44' E 009°18'38510.1
2015-Jan-25 12:25N 58°43' W 002°45'1314.9
2015-Jan-25 11:33N 58°42' W 003°09'1312.6
2015-Jan-25 10:33N 58°42' W 003°33'1111.2
2015-Jan-25 09:33N 58°41' W 003°55'1110.7
2015-Jan-25 08:33N 58°40' W 004°16'1210.3
2015-Jan-25 07:21N 58°39' W 004°39'52 9.0
2015-Jan-25 01:33N 58°04' W 005°52'1110.7
2015-Jan-25 00:33N 57°55' W 006°04'128 2.6
2015-Jan-22 23:23N 55°47' W 006°03'7 8.9
2015-Jan-22 22:33N 55°40' W 005°58'9 9.0
2015-Jan-22 21:33N 55°31' W 005°55'7 7.5
2015-Jan-22 20:33N 55°24' W 005°53'6 5.8
2015-Jan-22 19:34N 55°18' W 005°51'8 8.0
2015-Jan-22 18:34N 55°10' W 005°47'2311.6
2015-Jan-22 16:33N 54°48' W 005°39'13 9.8
2015-Jan-22 15:11N 54°37' W 005°54'0 0.0
2015-Jan-21 14:21N 54°37' W 005°54'0 0.0
2015-Jan-21 13:09N 54°37' W 005°54'0 0.0
2015-Jan-21 12:27N 54°37' W 005°54'0 0.0
2015-Jan-21 11:15N 54°37' W 005°54'0 0.0
2015-Jan-21 10:33N 54°37' W 005°54'0 0.0
2015-Jan-21 09:15N 54°37' W 005°54'0 0.0
2015-Jan-21 08:24N 54°37' W 005°54'0 0.0
2015-Jan-21 01:06N 54°37' W 005°54'0 0.0
2015-Jan-20 08:27N 54°37' W 005°54'0 0.0
2015-Jan-20 07:21N 54°37' W 005°54'0 0.0
2015-Jan-20 06:27N 54°37' W 005°54'0 0.0
2015-Jan-20 04:28N 54°37' W 005°54'6 6.6
2015-Jan-20 03:33N 54°42' W 005°47'3 3.3
2015-Jan-20 02:33N 54°42' W 005°41'  
Track history (hours):
 
Tides and Currents Weather Stations Pressure Air Temp Water Temp Dewpoint Dewpoint Depression Visibility Wind Speed Wind Dir Waves Ship Positions

Fri Langesund

Last reported at 2015-Jan-30 02:33 UTC. Time now 2015-Jan-30 02:41 UTC.
Position N 53°54' E 011°28'.

Length 90 m; draft 5.7 m.

Type: Cargo ship. MMSI: 236111779.

Date/timePositionNaut miles runAvg speedWind from/ knotsBaromVisibWave heightAir tempDewpointWater temp
2015-Jan-30 02:33N 53°54' E 011°28'0 0.0
2015-Jan-30 01:33N 53°54' E 011°28'0 0.0
2015-Jan-30 00:33N 53°54' E 011°28'0 0.0
2015-Jan-29 23:33N 53°54' E 011°28'0 0.0
2015-Jan-29 22:33N 53°54' E 011°28'0 0.0
2015-Jan-29 21:27N 53°54' E 011°28'0 0.0
2015-Jan-29 20:33N 53°54' E 011°28'0 0.0
2015-Jan-29 19:33N 53°54' E 011°28'0 0.0
2015-Jan-29 18:33N 53°54' E 011°28'0 0.0
2015-Jan-29 17:33N 53°54' E 011°28'0 0.0
2015-Jan-29 16:33N 53°54' E 011°28'0 0.0
2015-Jan-29 15:33N 53°54' E 011°28'0 0.0
2015-Jan-29 14:33N 53°54' E 011°28'0 0.0
2015-Jan-29 13:30N 53°54' E 011°28'0 0.0
2015-Jan-29 12:30N 53°54' E 011°28'0 0.0
2015-Jan-29 11:33N 53°54' E 011°28'0 0.0
2015-Jan-29 10:33N 53°54' E 011°28'0 0.0
2015-Jan-29 09:33N 53°54' E 011°28'0 0.0
2015-Jan-29 08:33N 53°54' E 011°28'0 0.0
2015-Jan-29 07:33N 53°54' E 011°28'0 0.0
2015-Jan-29 06:33N 53°54' E 011°28'0 0.0
2015-Jan-29 05:33N 53°54' E 011°28'0 0.0
2015-Jan-29 04:33N 53°54' E 011°28'0 0.0
2015-Jan-29 03:33N 53°54' E 011°28'0 0.0
2015-Jan-29 02:30N 53°54' E 011°28'0 0.0
2015-Jan-29 01:33N 53°54' E 011°28'0 0.0
2015-Jan-29 00:30N 53°54' E 011°28'0 0.0
2015-Jan-28 23:33N 53°54' E 011°28'0 0.0
2015-Jan-28 22:33N 53°54' E 011°28'0 0.0
2015-Jan-28 21:33N 53°54' E 011°28'0 0.0
2015-Jan-28 20:33N 53°54' E 011°28'0 0.0
2015-Jan-28 19:33N 53°54' E 011°28'0 0.0
2015-Jan-28 18:33N 53°54' E 011°28'0 0.0
2015-Jan-28 17:33N 53°54' E 011°28'0 0.0
2015-Jan-28 16:33N 53°54' E 011°28'0 0.0
2015-Jan-28 15:30N 53°54' E 011°28'0 0.0
2015-Jan-28 14:33N 53°54' E 011°28'0 0.0
2015-Jan-28 13:30N 53°54' E 011°28'0 0.0
2015-Jan-28 12:33N 53°54' E 011°28'0 0.0
2015-Jan-28 11:33N 53°54' E 011°28'0 0.0
2015-Jan-28 10:33N 53°54' E 011°28'0 0.0
2015-Jan-28 09:30N 53°54' E 011°28'3 3.0
2015-Jan-28 08:33N 53°56' E 011°25'6 6.2
2015-Jan-28 07:33N 54°02' E 011°25'18 9.0
2015-Jan-28 05:33N 54°20' E 011°23'9 9.5
2015-Jan-28 04:33N 54°30' E 011°21'10 9.6
2015-Jan-28 03:33N 54°36' E 011°08'187 9.2
2015-Jan-27 07:14N 57°42' E 010°45'6 8.9
2015-Jan-27 06:33N 57°47' E 010°39'2211.0
2015-Jan-27 04:32N 57°44' E 009°57'1110.5
2015-Jan-27 03:32N 57°44' E 009°37'1110.9
2015-Jan-27 02:33N 57°44' E 009°18'38510.1
2015-Jan-25 12:25N 58°43' W 002°45'1314.9
2015-Jan-25 11:33N 58°42' W 003°09'1312.6
2015-Jan-25 10:33N 58°42' W 003°33'1111.2
2015-Jan-25 09:33N 58°41' W 003°55'1110.7
2015-Jan-25 08:33N 58°40' W 004°16'1210.3
2015-Jan-25 07:21N 58°39' W 004°39'52 9.0
2015-Jan-25 01:33N 58°04' W 005°52'1110.7
2015-Jan-25 00:33N 57°55' W 006°04'128 2.6
2015-Jan-22 23:23N 55°47' W 006°03'7 8.9
2015-Jan-22 22:33N 55°40' W 005°58'9 9.0
2015-Jan-22 21:33N 55°31' W 005°55'7 7.5
2015-Jan-22 20:33N 55°24' W 005°53'6 5.8
2015-Jan-22 19:34N 55°18' W 005°51'8 8.0
2015-Jan-22 18:34N 55°10' W 005°47'2311.6
2015-Jan-22 16:33N 54°48' W 005°39'13 9.8
2015-Jan-22 15:11N 54°37' W 005°54'0 0.0
2015-Jan-21 14:21N 54°37' W 005°54'0 0.0
2015-Jan-21 13:09N 54°37' W 005°54'0 0.0
2015-Jan-21 12:27N 54°37' W 005°54'0 0.0
2015-Jan-21 11:15N 54°37' W 005°54'0 0.0
2015-Jan-21 10:33N 54°37' W 005°54'0 0.0
2015-Jan-21 09:15N 54°37' W 005°54'0 0.0
2015-Jan-21 08:24N 54°37' W 005°54'0 0.0
2015-Jan-21 01:06N 54°37' W 005°54'0 0.0
2015-Jan-20 08:27N 54°37' W 005°54'0 0.0
2015-Jan-20 07:21N 54°37' W 005°54'0 0.0
2015-Jan-20 06:27N 54°37' W 005°54'0 0.0
2015-Jan-20 04:28N 54°37' W 005°54'6 6.6
2015-Jan-20 03:33N 54°42' W 005°47'3 3.3
2015-Jan-20 02:33N 54°42' W 005°41'  

Dump ship's entire track history